sensor_id;sensor_type;location;lat;lon;timestamp;pressure;altitude;pressure_sealevel;temperature;humidity
62928;BME280;51070;52.236;-0.892;2023-07-02T00:00:22;100112.52;;;14.65;61.50
62928;BME280;51070;52.236;-0.892;2023-07-02T00:02:48;100114.06;;;14.62;61.57
62928;BME280;51070;52.236;-0.892;2023-07-02T00:05:13;100117.88;;;14.60;61.71
62928;BME280;51070;52.236;-0.892;2023-07-02T00:07:39;100117.34;;;14.57;61.71
62928;BME280;51070;52.236;-0.892;2023-07-02T00:10:05;100120.45;;;14.54;61.86
62928;BME280;51070;52.236;-0.892;2023-07-02T00:12:30;100117.45;;;14.48;61.97
62928;BME280;51070;52.236;-0.892;2023-07-02T00:14:55;100118.30;;;14.44;62.09
62928;BME280;51070;52.236;-0.892;2023-07-02T00:17:21;100117.05;;;14.40;62.24
62928;BME280;51070;52.236;-0.892;2023-07-02T00:19:46;100114.59;;;14.38;62.26
62928;BME280;51070;52.236;-0.892;2023-07-02T00:22:12;100119.42;;;14.35;62.31
62928;BME280;51070;52.236;-0.892;2023-07-02T00:24:56;100118.33;;;14.32;62.40
62928;BME280;51070;52.236;-0.892;2023-07-02T00:27:21;100119.56;;;14.30;62.32
62928;BME280;51070;52.236;-0.892;2023-07-02T00:29:47;100124.07;;;14.29;62.47
62928;BME280;51070;52.236;-0.892;2023-07-02T00:32:12;100126.14;;;14.29;62.56
62928;BME280;51070;52.236;-0.892;2023-07-02T00:34:37;100127.20;;;14.29;62.57
62928;BME280;51070;52.236;-0.892;2023-07-02T00:37:03;100126.84;;;14.28;62.54
62928;BME280;51070;52.236;-0.892;2023-07-02T00:39:28;100125.60;;;14.26;62.57
62928;BME280;51070;52.236;-0.892;2023-07-02T00:41:53;100124.20;;;14.24;62.51
62928;BME280;51070;52.236;-0.892;2023-07-02T00:44:19;100126.09;;;14.22;62.58
62928;BME280;51070;52.236;-0.892;2023-07-02T00:46:44;100127.65;;;14.22;62.69
62928;BME280;51070;52.236;-0.892;2023-07-02T00:49:10;100127.81;;;14.21;62.62
62928;BME280;51070;52.236;-0.892;2023-07-02T00:51:35;100129.38;;;14.20;62.63
62928;BME280;51070;52.236;-0.892;2023-07-02T00:54:02;100125.89;;;14.18;62.62
62928;BME280;51070;52.236;-0.892;2023-07-02T00:56:27;100129.51;;;14.15;62.76
62928;BME280;51070;52.236;-0.892;2023-07-02T00:58:55;100127.91;;;14.11;62.82
62928;BME280;51070;52.236;-0.892;2023-07-02T01:01:25;100130.15;;;14.08;62.79
62928;BME280;51070;52.236;-0.892;2023-07-02T01:04:00;100130.64;;;14.05;62.97
62928;BME280;51070;52.236;-0.892;2023-07-02T01:06:31;100129.91;;;14.01;63.10
62928;BME280;51070;52.236;-0.892;2023-07-02T01:09:00;100132.31;;;13.98;63.23
62928;BME280;51070;52.236;-0.892;2023-07-02T01:11:47;100134.91;;;13.96;63.20
62928;BME280;51070;52.236;-0.892;2023-07-02T01:14:23;100133.83;;;13.93;63.51
62928;BME280;51070;52.236;-0.892;2023-07-02T01:16:52;100132.05;;;13.90;63.70
62928;BME280;51070;52.236;-0.892;2023-07-02T01:22:06;100134.95;;;13.83;64.16
62928;BME280;51070;52.236;-0.892;2023-07-02T01:24:32;100138.57;;;13.79;64.30
62928;BME280;51070;52.236;-0.892;2023-07-02T01:26:58;100136.64;;;13.78;64.49
62928;BME280;51070;52.236;-0.892;2023-07-02T01:29:29;100142.70;;;13.77;64.79
62928;BME280;51070;52.236;-0.892;2023-07-02T01:31:55;100142.36;;;13.76;64.84
62928;BME280;51070;52.236;-0.892;2023-07-02T01:34:23;100141.14;;;13.78;64.99
62928;BME280;51070;52.236;-0.892;2023-07-02T01:36:49;100141.84;;;13.77;65.04
62928;BME280;51070;52.236;-0.892;2023-07-02T01:39:14;100142.36;;;13.77;65.04
62928;BME280;51070;52.236;-0.892;2023-07-02T01:41:44;100140.79;;;13.75;65.05
62928;BME280;51070;52.236;-0.892;2023-07-02T01:44:10;100143.17;;;13.72;65.13
62928;BME280;51070;52.236;-0.892;2023-07-02T01:46:36;100143.52;;;13.70;65.15
62928;BME280;51070;52.236;-0.892;2023-07-02T01:49:01;100148.69;;;13.68;65.31
62928;BME280;51070;52.236;-0.892;2023-07-02T01:51:27;100153.33;;;13.63;65.51
62928;BME280;51070;52.236;-0.892;2023-07-02T01:53:52;100155.20;;;13.59;65.76
62928;BME280;51070;52.236;-0.892;2023-07-02T01:56:17;100156.19;;;13.56;65.97
62928;BME280;51070;52.236;-0.892;2023-07-02T01:58:43;100152.33;;;13.51;66.25
62928;BME280;51070;52.236;-0.892;2023-07-02T02:01:08;100155.08;;;13.49;66.54
62928;BME280;51070;52.236;-0.892;2023-07-02T02:03:33;100155.03;;;13.45;66.74
62928;BME280;51070;52.236;-0.892;2023-07-02T02:05:59;100158.15;;;13.44;66.90
62928;BME280;51070;52.236;-0.892;2023-07-02T02:08:24;100157.45;;;13.43;67.06
62928;BME280;51070;52.236;-0.892;2023-07-02T02:10:49;100158.45;;;13.41;67.31
62928;BME280;51070;52.236;-0.892;2023-07-02T02:13:16;100159.14;;;13.40;67.47
62928;BME280;51070;52.236;-0.892;2023-07-02T02:15:41;100163.84;;;13.41;67.70
62928;BME280;51070;52.236;-0.892;2023-07-02T02:18:07;100163.30;;;13.40;67.72
62928;BME280;51070;52.236;-0.892;2023-07-02T02:20:32;100165.38;;;13.38;67.92
62928;BME280;51070;52.236;-0.892;2023-07-02T02:22:58;100164.50;;;13.37;68.06
62928;BME280;51070;52.236;-0.892;2023-07-02T02:25:23;100172.30;;;13.36;68.11
62928;BME280;51070;52.236;-0.892;2023-07-02T02:27:49;100171.38;;;13.33;68.37
62928;BME280;51070;52.236;-0.892;2023-07-02T02:30:14;100173.44;;;13.31;68.56
62928;BME280;51070;52.236;-0.892;2023-07-02T02:32:40;100173.75;;;13.28;68.71
62928;BME280;51070;52.236;-0.892;2023-07-02T02:35:07;100181.55;;;13.27;68.89
62928;BME280;51070;52.236;-0.892;2023-07-02T02:37:34;100180.47;;;13.25;69.10
62928;BME280;51070;52.236;-0.892;2023-07-02T02:40:00;100180.07;;;13.21;69.23
62928;BME280;51070;52.236;-0.892;2023-07-02T02:42:25;100182.80;;;13.16;69.46
62928;BME280;51070;52.236;-0.892;2023-07-02T02:44:51;100182.27;;;13.16;69.54
62928;BME280;51070;52.236;-0.892;2023-07-02T02:47:16;100179.48;;;13.16;69.64
62928;BME280;51070;52.236;-0.892;2023-07-02T02:49:42;100184.18;;;13.16;69.88
62928;BME280;51070;52.236;-0.892;2023-07-02T02:52:07;100185.89;;;13.15;70.11
62928;BME280;51070;52.236;-0.892;2023-07-02T02:54:33;100188.33;;;13.15;70.27
62928;BME280;51070;52.236;-0.892;2023-07-02T02:56:58;100181.73;;;13.15;70.41
62928;BME280;51070;52.236;-0.892;2023-07-02T02:59:24;100184.13;;;13.14;70.59
62928;BME280;51070;52.236;-0.892;2023-07-02T03:01:49;100183.23;;;13.11;70.54
62928;BME280;51070;52.236;-0.892;2023-07-02T03:04:16;100182.64;;;13.08;70.72
62928;BME280;51070;52.236;-0.892;2023-07-02T03:06:42;100185.05;;;13.06;70.96
62928;BME280;51070;52.236;-0.892;2023-07-02T03:09:07;100184.86;;;13.04;71.06
62928;BME280;51070;52.236;-0.892;2023-07-02T03:11:32;100187.92;;;13.01;71.12
62928;BME280;51070;52.236;-0.892;2023-07-02T03:13:58;100188.42;;;12.99;71.43
62928;BME280;51070;52.236;-0.892;2023-07-02T03:16:23;100192.02;;;12.96;71.34
62928;BME280;51070;52.236;-0.892;2023-07-02T03:18:48;100190.60;;;12.93;71.65
62928;BME280;51070;52.236;-0.892;2023-07-02T03:21:14;100189.73;;;12.94;71.77
62928;BME280;51070;52.236;-0.892;2023-07-02T03:23:39;100190.61;;;12.94;71.98
62928;BME280;51070;52.236;-0.892;2023-07-02T03:26:05;100192.89;;;12.94;72.21
62928;BME280;51070;52.236;-0.892;2023-07-02T03:28:30;100193.58;;;12.96;72.16
62928;BME280;51070;52.236;-0.892;2023-07-02T03:30:55;100196.55;;;12.97;72.27
62928;BME280;51070;52.236;-0.892;2023-07-02T03:33:21;100201.77;;;12.98;72.46
62928;BME280;51070;52.236;-0.892;2023-07-02T03:35:46;100205.25;;;12.99;72.38
62928;BME280;51070;52.236;-0.892;2023-07-02T03:38:11;100208.68;;;12.96;72.48
62928;BME280;51070;52.236;-0.892;2023-07-02T03:40:37;100209.11;;;12.90;72.60
62928;BME280;51070;52.236;-0.892;2023-07-02T03:43:02;100208.38;;;12.87;72.91
62928;BME280;51070;52.236;-0.892;2023-07-02T03:45:27;100210.41;;;12.85;73.05
62928;BME280;51070;52.236;-0.892;2023-07-02T03:47:53;100209.17;;;12.83;72.94
62928;BME280;51070;52.236;-0.892;2023-07-02T03:50:18;100213.80;;;12.80;73.38
62928;BME280;51070;52.236;-0.892;2023-07-02T03:52:44;100212.75;;;12.79;73.48
62928;BME280;51070;52.236;-0.892;2023-07-02T03:55:09;100216.38;;;12.77;73.49
62928;BME280;51070;52.236;-0.892;2023-07-02T03:57:34;100214.84;;;12.79;73.57
62928;BME280;51070;52.236;-0.892;2023-07-02T04:00:00;100217.81;;;12.81;73.59
62928;BME280;51070;52.236;-0.892;2023-07-02T04:02:25;100219.36;;;12.81;73.70
62928;BME280;51070;52.236;-0.892;2023-07-02T04:04:50;100219.92;;;12.83;73.99
62928;BME280;51070;52.236;-0.892;2023-07-02T04:07:16;100221.17;;;12.85;73.89
62928;BME280;51070;52.236;-0.892;2023-07-02T04:09:41;100220.67;;;12.87;73.84
62928;BME280;51070;52.236;-0.892;2023-07-02T04:12:07;100224.88;;;12.88;73.86
62928;BME280;51070;52.236;-0.892;2023-07-02T04:14:33;100224.69;;;12.88;73.84
62928;BME280;51070;52.236;-0.892;2023-07-02T04:17:00;100221.36;;;12.86;73.92
62928;BME280;51070;52.236;-0.892;2023-07-02T04:19:25;100221.16;;;12.85;73.91
62928;BME280;51070;52.236;-0.892;2023-07-02T04:21:50;100221.67;;;12.83;74.04
62928;BME280;51070;52.236;-0.892;2023-07-02T04:24:16;100229.98;;;12.82;74.24
62928;BME280;51070;52.236;-0.892;2023-07-02T04:26:41;100229.10;;;12.82;74.58
62928;BME280;51070;52.236;-0.892;2023-07-02T04:29:09;100230.54;;;12.84;74.67
62928;BME280;51070;52.236;-0.892;2023-07-02T04:31:35;100233.50;;;12.87;74.80
62928;BME280;51070;52.236;-0.892;2023-07-02T04:34:00;100233.38;;;12.89;74.81
62928;BME280;51070;52.236;-0.892;2023-07-02T04:36:25;100233.05;;;12.92;74.93
62928;BME280;51070;52.236;-0.892;2023-07-02T04:38:51;100234.85;;;12.94;74.92
62928;BME280;51070;52.236;-0.892;2023-07-02T04:41:18;100231.91;;;12.95;74.93
62928;BME280;51070;52.236;-0.892;2023-07-02T04:43:43;100231.05;;;12.97;75.08
62928;BME280;51070;52.236;-0.892;2023-07-02T04:46:11;100232.66;;;12.99;75.13
62928;BME280;51070;52.236;-0.892;2023-07-02T04:48:38;100235.09;;;12.99;75.12
62928;BME280;51070;52.236;-0.892;2023-07-02T04:51:03;100238.02;;;12.98;75.10
62928;BME280;51070;52.236;-0.892;2023-07-02T04:53:29;100233.16;;;12.98;75.13
62928;BME280;51070;52.236;-0.892;2023-07-02T04:55:57;100237.54;;;13.00;75.11
62928;BME280;51070;52.236;-0.892;2023-07-02T04:58:23;100240.38;;;13.07;75.18
62928;BME280;51070;52.236;-0.892;2023-07-02T05:00:48;100238.58;;;13.12;75.06
62928;BME280;51070;52.236;-0.892;2023-07-02T05:03:14;100241.27;;;13.17;74.94
62928;BME280;51070;52.236;-0.892;2023-07-02T05:05:39;100239.95;;;13.21;74.95
62928;BME280;51070;52.236;-0.892;2023-07-02T05:08:05;100243.32;;;13.27;74.70
62928;BME280;51070;52.236;-0.892;2023-07-02T05:10:30;100244.72;;;13.27;74.46
62928;BME280;51070;52.236;-0.892;2023-07-02T05:12:56;100245.23;;;13.27;74.49
62928;BME280;51070;52.236;-0.892;2023-07-02T05:15:23;100245.80;;;13.30;74.40
62928;BME280;51070;52.236;-0.892;2023-07-02T05:17:49;100244.97;;;13.32;74.29
62928;BME280;51070;52.236;-0.892;2023-07-02T05:20:15;100244.45;;;13.34;74.30
62928;BME280;51070;52.236;-0.892;2023-07-02T05:22:40;100242.70;;;13.34;74.15
62928;BME280;51070;52.236;-0.892;2023-07-02T05:25:06;100241.55;;;13.37;74.06
62928;BME280;51070;52.236;-0.892;2023-07-02T05:27:32;100239.20;;;13.43;73.94
62928;BME280;51070;52.236;-0.892;2023-07-02T05:29:57;100242.55;;;13.48;73.70
62928;BME280;51070;52.236;-0.892;2023-07-02T05:32:22;100244.88;;;13.53;73.80
62928;BME280;51070;52.236;-0.892;2023-07-02T05:34:49;100245.86;;;13.63;73.62
62928;BME280;51070;52.236;-0.892;2023-07-02T05:37:14;100249.91;;;13.82;73.38
62928;BME280;51070;52.236;-0.892;2023-07-02T05:39:39;100248.27;;;14.05;72.85
62928;BME280;51070;52.236;-0.892;2023-07-02T05:42:05;100245.01;;;14.27;72.27
62928;BME280;51070;52.236;-0.892;2023-07-02T05:44:30;100247.83;;;14.47;71.71
62928;BME280;51070;52.236;-0.892;2023-07-02T05:46:56;100244.69;;;14.66;71.02
62928;BME280;51070;52.236;-0.892;2023-07-02T05:49:21;100246.52;;;14.78;70.36
62928;BME280;51070;52.236;-0.892;2023-07-02T05:51:46;100248.85;;;14.87;69.93
62928;BME280;51070;52.236;-0.892;2023-07-02T05:54:12;100245.25;;;14.93;69.58
62928;BME280;51070;52.236;-0.892;2023-07-02T05:56:37;100245.80;;;14.99;69.38
62928;BME280;51070;52.236;-0.892;2023-07-02T05:59:03;100247.59;;;15.04;69.32
62928;BME280;51070;52.236;-0.892;2023-07-02T06:01:28;100250.89;;;15.05;69.13
62928;BME280;51070;52.236;-0.892;2023-07-02T06:03:53;100247.77;;;15.05;69.02
62928;BME280;51070;52.236;-0.892;2023-07-02T06:06:20;100248.30;;;15.10;68.95
62928;BME280;51070;52.236;-0.892;2023-07-02T06:08:45;100249.10;;;15.26;68.52
62928;BME280;51070;52.236;-0.892;2023-07-02T06:11:12;100249.58;;;15.47;68.13
62928;BME280;51070;52.236;-0.892;2023-07-02T06:13:37;100250.94;;;15.79;67.40
62928;BME280;51070;52.236;-0.892;2023-07-02T06:16:03;100251.60;;;16.80;65.28
62928;BME280;51070;52.236;-0.892;2023-07-02T06:18:28;100249.48;;;18.79;61.87
62928;BME280;51070;52.236;-0.892;2023-07-02T06:20:53;100245.54;;;21.21;55.83
62928;BME280;51070;52.236;-0.892;2023-07-02T06:23:19;100247.85;;;22.25;52.25
62928;BME280;51070;52.236;-0.892;2023-07-02T06:25:45;100247.70;;;22.17;52.32
62928;BME280;51070;52.236;-0.892;2023-07-02T06:28:10;100252.26;;;22.54;51.27
62928;BME280;51070;52.236;-0.892;2023-07-02T06:30:35;100255.13;;;24.02;48.59
62928;BME280;51070;52.236;-0.892;2023-07-02T06:33:01;100250.52;;;25.72;45.12
62928;BME280;51070;52.236;-0.892;2023-07-02T06:35:27;100254.02;;;26.97;42.72
62928;BME280;51070;52.236;-0.892;2023-07-02T06:37:52;100256.73;;;28.41;39.29
62928;BME280;51070;52.236;-0.892;2023-07-02T06:40:18;100262.45;;;28.98;37.26
62928;BME280;51070;52.236;-0.892;2023-07-02T06:42:43;100261.77;;;28.36;37.49
62928;BME280;51070;52.236;-0.892;2023-07-02T06:45:08;100263.17;;;27.11;37.35
62928;BME280;51070;52.236;-0.892;2023-07-02T06:47:34;100260.52;;;26.87;37.96
62928;BME280;51070;52.236;-0.892;2023-07-02T06:49:59;100260.27;;;27.62;36.29
62928;BME280;51070;52.236;-0.892;2023-07-02T06:52:25;100260.28;;;28.84;35.02
62928;BME280;51070;52.236;-0.892;2023-07-02T06:54:50;100256.00;;;30.12;33.25
62928;BME280;51070;52.236;-0.892;2023-07-02T06:57:15;100251.12;;;30.32;32.28
62928;BME280;51070;52.236;-0.892;2023-07-02T06:59:41;100255.36;;;31.07;31.35
62928;BME280;51070;52.236;-0.892;2023-07-02T07:02:07;100255.31;;;30.89;30.85
62928;BME280;51070;52.236;-0.892;2023-07-02T07:04:32;100253.75;;;30.08;31.07
62928;BME280;51070;52.236;-0.892;2023-07-02T07:07:00;100260.65;;;29.05;31.73
62928;BME280;51070;52.236;-0.892;2023-07-02T07:09:26;100257.98;;;28.11;32.92
62928;BME280;51070;52.236;-0.892;2023-07-02T07:11:52;100265.24;;;27.41;33.61
62928;BME280;51070;52.236;-0.892;2023-07-02T07:14:17;100263.92;;;26.77;34.08
62928;BME280;51070;52.236;-0.892;2023-07-02T07:16:42;100263.86;;;26.21;34.70
62928;BME280;51070;52.236;-0.892;2023-07-02T07:19:08;100270.61;;;25.93;34.94
62928;BME280;51070;52.236;-0.892;2023-07-02T07:21:34;100266.45;;;26.28;34.30
62928;BME280;51070;52.236;-0.892;2023-07-02T07:24:01;100273.02;;;26.41;33.60
62928;BME280;51070;52.236;-0.892;2023-07-02T07:26:27;100267.17;;;26.50;33.65
62928;BME280;51070;52.236;-0.892;2023-07-02T07:28:52;100267.25;;;26.43;34.19
62928;BME280;51070;52.236;-0.892;2023-07-02T07:31:21;100267.91;;;26.27;33.82
62928;BME280;51070;52.236;-0.892;2023-07-02T07:33:46;100268.62;;;26.03;34.28
62928;BME280;51070;52.236;-0.892;2023-07-02T07:36:12;100274.27;;;25.85;34.25
62928;BME280;51070;52.236;-0.892;2023-07-02T07:38:37;100271.73;;;25.68;34.52
62928;BME280;51070;52.236;-0.892;2023-07-02T07:41:03;100278.91;;;25.61;34.49
62928;BME280;51070;52.236;-0.892;2023-07-02T07:43:28;100276.34;;;26.15;33.84
62928;BME280;51070;52.236;-0.892;2023-07-02T07:45:54;100272.89;;;26.31;33.29
62928;BME280;51070;52.236;-0.892;2023-07-02T07:48:20;100280.73;;;25.97;33.51
62928;BME280;51070;52.236;-0.892;2023-07-02T07:50:46;100286.19;;;25.70;33.80
62928;BME280;51070;52.236;-0.892;2023-07-02T07:53:12;100278.09;;;25.48;34.17
62928;BME280;51070;52.236;-0.892;2023-07-02T07:55:37;100277.50;;;26.81;33.10
62928;BME280;51070;52.236;-0.892;2023-07-02T07:58:03;100271.89;;;29.21;29.89
62928;BME280;51070;52.236;-0.892;2023-07-02T08:00:28;100268.95;;;31.12;27.51
62928;BME280;51070;52.236;-0.892;2023-07-02T08:02:54;100271.14;;;32.48;26.14
62928;BME280;51070;52.236;-0.892;2023-07-02T08:05:21;100273.40;;;32.76;24.78
62928;BME280;51070;52.236;-0.892;2023-07-02T08:07:46;100276.08;;;31.77;25.14
62928;BME280;51070;52.236;-0.892;2023-07-02T08:10:12;100276.81;;;30.79;26.38
62928;BME280;51070;52.236;-0.892;2023-07-02T08:12:37;100275.46;;;30.31;26.75
62928;BME280;51070;52.236;-0.892;2023-07-02T08:15:03;100271.98;;;30.29;26.52
62928;BME280;51070;52.236;-0.892;2023-07-02T08:17:29;100274.58;;;30.59;26.47
62928;BME280;51070;52.236;-0.892;2023-07-02T08:19:56;100277.79;;;30.68;26.33
62928;BME280;51070;52.236;-0.892;2023-07-02T08:22:22;100275.54;;;31.21;26.06
62928;BME280;51070;52.236;-0.892;2023-07-02T08:24:47;100276.56;;;30.43;26.69
62928;BME280;51070;52.236;-0.892;2023-07-02T08:27:15;100283.18;;;29.47;27.30
62928;BME280;51070;52.236;-0.892;2023-07-02T08:29:44;100280.19;;;29.02;27.88
62928;BME280;51070;52.236;-0.892;2023-07-02T08:32:09;100278.16;;;30.42;26.85
62928;BME280;51070;52.236;-0.892;2023-07-02T08:34:35;100277.91;;;31.24;26.20
62928;BME280;51070;52.236;-0.892;2023-07-02T08:37:00;100276.70;;;31.32;25.82
62928;BME280;51070;52.236;-0.892;2023-07-02T08:39:26;100279.17;;;31.26;26.10
62928;BME280;51070;52.236;-0.892;2023-07-02T08:41:51;100282.95;;;31.14;25.61
62928;BME280;51070;52.236;-0.892;2023-07-02T08:44:20;100287.14;;;31.33;25.19
62928;BME280;51070;52.236;-0.892;2023-07-02T08:46:47;100281.93;;;31.77;23.86
62928;BME280;51070;52.236;-0.892;2023-07-02T08:49:16;100282.69;;;31.56;24.38
62928;BME280;51070;52.236;-0.892;2023-07-02T08:51:46;100288.25;;;30.91;24.30
62928;BME280;51070;52.236;-0.892;2023-07-02T08:54:11;100284.92;;;30.68;24.49
62928;BME280;51070;52.236;-0.892;2023-07-02T08:56:38;100279.77;;;30.27;24.46
62928;BME280;51070;52.236;-0.892;2023-07-02T08:59:07;100289.01;;;29.45;25.12
62928;BME280;51070;52.236;-0.892;2023-07-02T09:01:32;100283.66;;;28.72;25.48
62928;BME280;51070;52.236;-0.892;2023-07-02T09:03:59;100282.85;;;28.11;26.57
62928;BME280;51070;52.236;-0.892;2023-07-02T09:06:27;100284.39;;;27.66;27.13
62928;BME280;51070;52.236;-0.892;2023-07-02T09:08:53;100287.20;;;27.34;27.61
62928;BME280;51070;52.236;-0.892;2023-07-02T09:11:28;100285.35;;;26.86;27.97
62928;BME280;51070;52.236;-0.892;2023-07-02T09:13:53;100284.80;;;26.34;28.35
62928;BME280;51070;52.236;-0.892;2023-07-02T09:16:28;100290.95;;;25.79;29.03
62928;BME280;51070;52.236;-0.892;2023-07-02T09:19:04;100286.39;;;25.39;29.66
62928;BME280;51070;52.236;-0.892;2023-07-02T09:24:11;100287.11;;;24.60;31.71
62928;BME280;51070;52.236;-0.892;2023-07-02T09:26:37;100283.80;;;24.01;32.61
62928;BME280;51070;52.236;-0.892;2023-07-02T09:29:02;100282.21;;;23.44;33.52
62928;BME280;51070;52.236;-0.892;2023-07-02T09:31:27;100282.36;;;22.84;34.30
62928;BME280;51070;52.236;-0.892;2023-07-02T09:34:01;100280.43;;;22.32;35.31
62928;BME280;51070;52.236;-0.892;2023-07-02T09:36:26;100289.53;;;21.85;36.28
62928;BME280;51070;52.236;-0.892;2023-07-02T09:38:52;100288.01;;;21.47;37.13
62928;BME280;51070;52.236;-0.892;2023-07-02T09:41:18;100286.48;;;21.25;37.81
62928;BME280;51070;52.236;-0.892;2023-07-02T09:43:44;100283.25;;;21.29;38.32
62928;BME280;51070;52.236;-0.892;2023-07-02T09:46:09;100283.03;;;21.41;38.38
62928;BME280;51070;52.236;-0.892;2023-07-02T09:48:35;100279.54;;;21.40;38.38
62928;BME280;51070;52.236;-0.892;2023-07-02T09:51:01;100280.37;;;21.60;38.26
62928;BME280;51070;52.236;-0.892;2023-07-02T09:53:28;100276.00;;;22.71;36.88
62928;BME280;51070;52.236;-0.892;2023-07-02T09:55:54;100273.58;;;23.05;36.34
62928;BME280;51070;52.236;-0.892;2023-07-02T09:58:20;100268.52;;;23.03;36.07
62928;BME280;51070;52.236;-0.892;2023-07-02T10:00:46;100265.33;;;22.90;35.86
62928;BME280;51070;52.236;-0.892;2023-07-02T10:03:11;100262.68;;;22.68;35.60
62928;BME280;51070;52.236;-0.892;2023-07-02T10:05:37;100266.81;;;22.50;35.70
62928;BME280;51070;52.236;-0.892;2023-07-02T10:08:15;100267.16;;;22.43;35.70
62928;BME280;51070;52.236;-0.892;2023-07-02T10:10:46;100267.50;;;22.59;35.74
62928;BME280;51070;52.236;-0.892;2023-07-02T10:13:12;100273.52;;;22.73;35.81
62928;BME280;51070;52.236;-0.892;2023-07-02T10:15:37;100281.68;;;22.69;35.56
62928;BME280;51070;52.236;-0.892;2023-07-02T10:18:04;100274.23;;;22.49;34.97
62928;BME280;51070;52.236;-0.892;2023-07-02T10:23:03;100282.57;;;21.99;36.50
62928;BME280;51070;52.236;-0.892;2023-07-02T10:25:35;100282.36;;;21.75;37.39
62928;BME280;51070;52.236;-0.892;2023-07-02T10:30:39;100277.81;;;21.19;39.28
62928;BME280;51070;52.236;-0.892;2023-07-02T10:35:36;100286.60;;;20.86;40.41
62928;BME280;51070;52.236;-0.892;2023-07-02T10:38:02;100286.92;;;20.78;40.72
62928;BME280;51070;52.236;-0.892;2023-07-02T10:40:28;100287.10;;;20.67;41.29
62928;BME280;51070;52.236;-0.892;2023-07-02T10:42:54;100286.15;;;20.60;41.27
62928;BME280;51070;52.236;-0.892;2023-07-02T10:45:31;100281.09;;;20.48;41.15
62928;BME280;51070;52.236;-0.892;2023-07-02T10:47:57;100285.19;;;20.30;41.26
62928;BME280;51070;52.236;-0.892;2023-07-02T10:50:22;100282.34;;;20.33;40.95
62928;BME280;51070;52.236;-0.892;2023-07-02T10:52:49;100292.73;;;20.55;39.75
62928;BME280;51070;52.236;-0.892;2023-07-02T10:55:22;100294.29;;;20.68;38.81
62928;BME280;51070;52.236;-0.892;2023-07-02T10:57:49;100296.92;;;20.79;38.35
62928;BME280;51070;52.236;-0.892;2023-07-02T11:00:16;100289.56;;;20.99;37.94
62928;BME280;51070;52.236;-0.892;2023-07-02T11:02:42;100288.42;;;21.14;37.65
62928;BME280;51070;52.236;-0.892;2023-07-02T11:05:08;100284.02;;;21.25;37.90
62928;BME280;51070;52.236;-0.892;2023-07-02T11:07:41;100288.05;;;21.36;38.02
62928;BME280;51070;52.236;-0.892;2023-07-02T11:10:09;100295.68;;;21.31;38.32
62928;BME280;51070;52.236;-0.892;2023-07-02T11:12:35;100285.05;;;21.26;38.47
62928;BME280;51070;52.236;-0.892;2023-07-02T11:15:12;100286.94;;;21.38;38.55
62928;BME280;51070;52.236;-0.892;2023-07-02T11:17:39;100286.77;;;21.74;38.13
62928;BME280;51070;52.236;-0.892;2023-07-02T11:20:08;100280.70;;;22.12;37.75
62928;BME280;51070;52.236;-0.892;2023-07-02T11:22:35;100278.65;;;22.26;37.46
62928;BME280;51070;52.236;-0.892;2023-07-02T11:25:15;100275.20;;;22.38;37.39
62928;BME280;51070;52.236;-0.892;2023-07-02T11:27:41;100275.79;;;22.50;37.13
62928;BME280;51070;52.236;-0.892;2023-07-02T11:30:11;100274.92;;;22.49;36.70
62928;BME280;51070;52.236;-0.892;2023-07-02T11:32:47;100277.38;;;22.28;36.47
62928;BME280;51070;52.236;-0.892;2023-07-02T11:35:14;100286.94;;;22.00;36.78
62928;BME280;51070;52.236;-0.892;2023-07-02T11:37:41;100290.48;;;21.73;37.23
62928;BME280;51070;52.236;-0.892;2023-07-02T11:40:07;100292.33;;;21.42;37.87
62928;BME280;51070;52.236;-0.892;2023-07-02T11:42:33;100283.41;;;21.20;38.44
62928;BME280;51070;52.236;-0.892;2023-07-02T11:45:00;100291.36;;;21.18;38.34
62928;BME280;51070;52.236;-0.892;2023-07-02T11:47:25;100292.41;;;21.18;38.41
62928;BME280;51070;52.236;-0.892;2023-07-02T11:49:53;100288.95;;;21.34;38.40
62928;BME280;51070;52.236;-0.892;2023-07-02T11:52:20;100277.44;;;21.66;38.25
62928;BME280;51070;52.236;-0.892;2023-07-02T11:54:47;100277.10;;;21.91;37.90
62928;BME280;51070;52.236;-0.892;2023-07-02T11:57:12;100274.79;;;21.92;37.56
62928;BME280;51070;52.236;-0.892;2023-07-02T11:59:38;100273.59;;;21.73;37.74
62928;BME280;51070;52.236;-0.892;2023-07-02T12:02:03;100282.66;;;21.60;37.79
62928;BME280;51070;52.236;-0.892;2023-07-02T12:04:29;100276.09;;;21.63;37.37
62928;BME280;51070;52.236;-0.892;2023-07-02T12:06:55;100281.53;;;21.89;37.07
62928;BME280;51070;52.236;-0.892;2023-07-02T12:09:20;100267.21;;;22.33;36.74
62928;BME280;51070;52.236;-0.892;2023-07-02T12:11:45;100263.70;;;22.62;36.34
62928;BME280;51070;52.236;-0.892;2023-07-02T12:14:12;100269.77;;;22.75;35.84
62928;BME280;51070;52.236;-0.892;2023-07-02T12:16:37;100268.13;;;22.61;35.86
62928;BME280;51070;52.236;-0.892;2023-07-02T12:19:02;100271.23;;;22.42;35.93
62928;BME280;51070;52.236;-0.892;2023-07-02T12:21:28;100265.94;;;22.35;36.44
62928;BME280;51070;52.236;-0.892;2023-07-02T12:23:53;100265.55;;;22.36;36.46
62928;BME280;51070;52.236;-0.892;2023-07-02T12:26:19;100263.51;;;22.18;36.42
62928;BME280;51070;52.236;-0.892;2023-07-02T12:28:44;100260.68;;;21.86;36.80
62928;BME280;51070;52.236;-0.892;2023-07-02T12:31:10;100269.42;;;21.79;37.24
62928;BME280;51070;52.236;-0.892;2023-07-02T12:33:38;100267.91;;;21.94;36.92
62928;BME280;51070;52.236;-0.892;2023-07-02T12:36:05;100265.88;;;21.98;36.41
62928;BME280;51070;52.236;-0.892;2023-07-02T12:38:30;100259.00;;;22.00;35.81
62928;BME280;51070;52.236;-0.892;2023-07-02T12:40:56;100264.87;;;22.04;34.84
62928;BME280;51070;52.236;-0.892;2023-07-02T12:43:21;100263.07;;;22.14;34.82
62928;BME280;51070;52.236;-0.892;2023-07-02T12:45:47;100259.59;;;22.43;34.33
62928;BME280;51070;52.236;-0.892;2023-07-02T12:48:13;100259.65;;;22.55;33.85